Time;durP1;ratioP1;P1;durP2;ratioP2;P2;SDS_P1;SDS_P2;PMS_P1;PMS_P2;Temp;Humidity;BMP_temperature;BMP_pressure;BME280_temperature;BME280_humidity;BME280_pressure;Samples;Min_cycle;Max_cycle;Signal;HPM_P1;HPM_P2
2023/05/19 00:01:23;;;;;;;3.03;2.00;;;;;;;;;;5017646;28;20194;-71
2023/05/19 00:03:53;;;;;;;3.37;1.93;;;;;;;;;;5036606;28;20179;-71
2023/05/19 00:06:24;;;;;;;5.77;2.20;;;;;;;;;;5019916;28;20202;-71
2023/05/19 00:08:53;;;;;;;5.17;2.13;;;;;;;;;;5009617;28;21940;-71
2023/05/19 00:11:21;;;;;;;5.10;2.20;;;;;;;;;;5035994;28;20189;-71
2023/05/19 00:13:48;;;;;;;5.23;1.97;;;;;;;;;;5030889;28;20185;-71
2023/05/19 00:16:15;;;;;;;4.03;2.13;;;;;;;;;;5030799;28;20202;-70
2023/05/19 00:18:42;;;;;;;5.43;2.17;;;;;;;;;;5031754;28;20669;-71
2023/05/19 00:21:08;;;;;;;4.33;2.07;;;;;;;;;;5031707;28;20174;-72
2023/05/19 00:23:34;;;;;;;4.33;1.93;;;;;;;;;;5047493;28;20206;-71
2023/05/19 00:26:00;;;;;;;5.77;2.37;;;;;;;;;;5030773;28;20217;-71
2023/05/19 00:28:26;;;;;;;4.10;1.70;;;;;;;;;;5037286;28;20255;-71
2023/05/19 00:30:52;;;;;;;5.50;2.23;;;;;;;;;;5033660;28;20185;-72
2023/05/19 00:33:18;;;;;;;6.10;2.10;;;;;;;;;;5030880;28;20654;-71
2023/05/19 00:35:45;;;;;;;6.30;1.90;;;;;;;;;;5021437;28;20186;-71
2023/05/19 00:38:11;;;;;;;4.53;2.00;;;;;;;;;;5039370;28;20206;-71
2023/05/19 00:40:37;;;;;;;6.70;2.30;;;;;;;;;;5016166;28;20181;-71
2023/05/19 00:43:07;;;;;;;3.97;2.10;;;;;;;;;;5032965;28;20665;-73
2023/05/19 00:45:33;;;;;;;7.30;2.30;;;;;;;;;;5042352;28;20182;-71
2023/05/19 00:48:00;;;;;;;8.40;2.03;;;;;;;;;;5032859;28;20225;-72
2023/05/19 00:50:27;;;;;;;4.73;2.00;;;;;;;;;;5033867;28;20189;-72
2023/05/19 00:52:56;;;;;;;4.83;1.90;;;;;;;;;;5023580;28;20182;-72
2023/05/19 00:55:24;;;;;;;4.33;1.97;;;;;;;;;;5010691;28;20615;-71
2023/05/19 00:57:50;;;;;;;9.30;2.27;;;;;;;;;;5033246;28;20202;-72
2023/05/19 01:00:17;;;;;;;8.23;3.23;;;;;;;;;;5019548;28;20641;-71
2023/05/19 01:02:43;;;;;;;8.03;2.60;;;;;;;;;;5023773;28;20232;-71
2023/05/19 01:05:09;;;;;;;5.03;2.30;;;;;;;;;;5040343;28;20174;-71
2023/05/19 01:07:35;;;;;;;6.13;2.40;;;;;;;;;;5036932;28;20250;-71
2023/05/19 01:10:02;;;;;;;3.60;2.00;;;;;;;;;;5019116;28;20232;-71
2023/05/19 01:12:28;;;;;;;4.10;2.10;;;;;;;;;;5032403;28;20199;-71
2023/05/19 01:14:55;;;;;;;6.63;1.90;;;;;;;;;;5014428;28;20179;-71
2023/05/19 01:17:41;;;;;;;7.70;2.47;;;;;;;;;;5031759;28;20199;-71
2023/05/19 01:20:31;;;;;;;6.33;2.07;;;;;;;;;;5009223;28;20269;-72
2023/05/19 01:23:06;;;;;;;7.83;2.47;;;;;;;;;;5021683;28;20223;-72
2023/05/19 01:25:39;;;;;;;5.87;2.30;;;;;;;;;;5032224;28;20189;-72
2023/05/19 01:28:05;;;;;;;4.53;2.00;;;;;;;;;;5030394;28;20187;-72
2023/05/19 01:30:39;;;;;;;4.27;2.07;;;;;;;;;;5029288;28;20201;-72
2023/05/19 01:33:11;;;;;;;7.00;2.67;;;;;;;;;;5013936;28;20185;-72
2023/05/19 01:35:39;;;;;;;5.33;1.93;;;;;;;;;;5016663;28;20174;-71
2023/05/19 01:38:07;;;;;;;3.93;2.23;;;;;;;;;;5032009;28;20711;-71
2023/05/19 01:40:34;;;;;;;5.53;2.50;;;;;;;;;;5030122;28;20658;-72
2023/05/19 01:43:01;;;;;;;5.27;1.97;;;;;;;;;;5013894;28;20229;-72
2023/05/19 01:45:28;;;;;;;6.23;2.10;;;;;;;;;;5030404;28;20192;-71
2023/05/19 01:47:56;;;;;;;3.43;2.00;;;;;;;;;;5040461;28;20202;-72
2023/05/19 01:50:22;;;;;;;6.17;2.13;;;;;;;;;;5025325;28;20245;-71
2023/05/19 01:52:49;;;;;;;5.10;2.03;;;;;;;;;;5013045;28;20194;-72
2023/05/19 01:55:15;;;;;;;4.10;2.20;;;;;;;;;;5013014;28;20175;-72
2023/05/19 01:57:41;;;;;;;8.77;2.13;;;;;;;;;;5012575;28;20748;-72
2023/05/19 02:00:14;;;;;;;5.53;2.00;;;;;;;;;;5014181;28;20188;-72
2023/05/19 02:02:46;;;;;;;4.23;2.10;;;;;;;;;;5015699;28;20261;-72
2023/05/19 02:05:28;;;;;;;5.27;2.10;;;;;;;;;;5016347;28;20505;-72
2023/05/19 02:08:11;;;;;;;6.13;2.17;;;;;;;;;;5020334;28;20519;-71
2023/05/19 02:10:39;;;;;;;5.93;1.93;;;;;;;;;;4999419;28;20189;-71
2023/05/19 02:13:10;;;;;;;4.47;2.00;;;;;;;;;;4999325;28;20201;-71
2023/05/19 02:15:40;;;;;;;4.90;2.00;;;;;;;;;;4997186;28;20702;-71
2023/05/19 02:18:10;;;;;;;4.60;2.00;;;;;;;;;;5016230;28;20198;-72
2023/05/19 02:20:37;;;;;;;4.63;2.10;;;;;;;;;;5033770;28;20188;-71
2023/05/19 02:23:03;;;;;;;4.93;2.13;;;;;;;;;;5033458;28;20179;-72
2023/05/19 02:25:29;;;;;;;4.80;2.17;;;;;;;;;;5034896;28;20691;-71
2023/05/19 02:27:55;;;;;;;5.53;2.00;;;;;;;;;;5045186;28;20629;-71
2023/05/19 02:30:21;;;;;;;3.13;2.10;;;;;;;;;;5011431;28;20673;-71
2023/05/19 02:32:47;;;;;;;5.40;2.00;;;;;;;;;;5012018;28;20198;-71
2023/05/19 02:35:15;;;;;;;6.23;2.57;;;;;;;;;;5010004;28;20189;-71
2023/05/19 02:37:41;;;;;;;5.87;2.03;;;;;;;;;;5050431;28;20209;-72
2023/05/19 02:40:07;;;;;;;3.87;1.90;;;;;;;;;;5033655;28;20190;-72
2023/05/19 02:42:34;;;;;;;5.33;2.03;;;;;;;;;;5015293;28;20568;-71
2023/05/19 02:45:00;;;;;;;4.93;1.97;;;;;;;;;;5019455;28;20296;-71
2023/05/19 02:47:26;;;;;;;2.70;1.90;;;;;;;;;;5023539;28;20206;-71
2023/05/19 02:49:52;;;;;;;4.60;2.03;;;;;;;;;;5028960;28;20178;-71
2023/05/19 02:52:18;;;;;;;4.70;2.00;;;;;;;;;;5041372;28;20269;-71
2023/05/19 02:54:45;;;;;;;5.70;2.00;;;;;;;;;;4998881;28;20187;-72
2023/05/19 02:57:11;;;;;;;4.10;1.90;;;;;;;;;;5023449;28;20279;-71
2023/05/19 02:59:37;;;;;;;3.43;1.97;;;;;;;;;;5002470;28;20182;-71
2023/05/19 03:02:03;;;;;;;5.23;1.90;;;;;;;;;;5016147;28;20186;-72
2023/05/19 03:04:30;;;;;;;3.53;1.80;;;;;;;;;;5052609;28;20649;-72
2023/05/19 03:06:56;;;;;;;4.37;1.90;;;;;;;;;;5041051;28;20238;-72
2023/05/19 03:09:22;;;;;;;3.37;1.97;;;;;;;;;;5017567;28;20600;-71
2023/05/19 03:11:49;;;;;;;3.67;1.90;;;;;;;;;;5017740;28;20370;-72
2023/05/19 03:14:15;;;;;;;6.00;1.90;;;;;;;;;;5013371;28;20210;-72
2023/05/19 03:16:41;;;;;;;5.27;2.10;;;;;;;;;;5022247;28;20281;-71
2023/05/19 03:19:07;;;;;;;4.27;1.90;;;;;;;;;;5032269;28;20206;-72
2023/05/19 03:21:34;;;;;;;4.57;1.90;;;;;;;;;;5032870;28;20189;-71
2023/05/19 03:24:00;;;;;;;4.87;2.00;;;;;;;;;;5014755;28;20175;-71
2023/05/19 03:26:28;;;;;;;4.30;2.13;;;;;;;;;;5014947;28;20702;-72
2023/05/19 03:28:55;;;;;;;8.43;2.20;;;;;;;;;;5030735;28;20599;-72
2023/05/19 03:31:21;;;;;;;4.40;2.10;;;;;;;;;;5015831;28;20614;-72
2023/05/19 03:33:47;;;;;;;5.27;2.10;;;;;;;;;;4992036;28;20643;-71
2023/05/19 03:36:14;;;;;;;4.50;1.83;;;;;;;;;;5027829;28;20210;-71
2023/05/19 03:38:40;;;;;;;6.30;2.43;;;;;;;;;;5015597;28;20244;-71
2023/05/19 03:41:06;;;;;;;5.37;2.20;;;;;;;;;;5019776;28;20178;-71
2023/05/19 03:43:33;;;;;;;4.07;2.00;;;;;;;;;;5013910;28;20183;-71
2023/05/19 03:46:04;;;;;;;6.63;2.00;;;;;;;;;;5017250;28;20584;-72
2023/05/19 03:48:53;;;;;;;4.13;2.07;;;;;;;;;;5018856;28;20197;-71
2023/05/19 03:51:33;;;;;;;5.83;2.20;;;;;;;;;;4985687;28;20669;-71
2023/05/19 03:54:07;;;;;;;4.10;2.00;;;;;;;;;;5016833;28;20173;-72
2023/05/19 03:56:33;;;;;;;4.07;2.00;;;;;;;;;;5014378;28;20206;-72
2023/05/19 03:58:59;;;;;;;6.53;2.33;;;;;;;;;;5042658;28;20229;-72
2023/05/19 04:01:26;;;;;;;3.30;1.90;;;;;;;;;;5038404;28;20167;-72
2023/05/19 04:03:52;;;;;;;3.50;1.70;;;;;;;;;;5006437;28;20818;-72
2023/05/19 04:06:18;;;;;;;5.93;2.00;;;;;;;;;;5029434;28;20777;-72
2023/05/19 04:08:45;;;;;;;4.57;2.00;;;;;;;;;;5018930;28;20177;-72
2023/05/19 04:11:12;;;;;;;5.07;2.30;;;;;;;;;;5006473;28;20182;-72
2023/05/19 04:13:38;;;;;;;5.77;2.03;;;;;;;;;;5040519;28;20240;-72
2023/05/19 04:16:05;;;;;;;5.27;2.00;;;;;;;;;;5031235;28;20199;-71
2023/05/19 04:18:31;;;;;;;7.10;2.37;;;;;;;;;;5024349;28;20613;-72
2023/05/19 04:20:57;;;;;;;3.50;1.80;;;;;;;;;;5031168;28;20182;-72
2023/05/19 04:23:25;;;;;;;3.87;2.10;;;;;;;;;;5040983;28;20186;-71
2023/05/19 04:25:52;;;;;;;3.97;2.00;;;;;;;;;;5022863;28;20189;-72
2023/05/19 04:28:19;;;;;;;5.43;2.03;;;;;;;;;;5029648;28;20240;-71
2023/05/19 04:30:45;;;;;;;4.23;2.00;;;;;;;;;;5014427;28;20175;-72
2023/05/19 04:33:12;;;;;;;3.70;2.00;;;;;;;;;;5015621;28;20187;-71
2023/05/19 04:35:38;;;;;;;5.90;2.00;;;;;;;;;;5007158;28;20257;-71
2023/05/19 04:38:08;;;;;;;5.33;2.00;;;;;;;;;;5003037;28;20236;-72
2023/05/19 04:40:35;;;;;;;4.17;1.77;;;;;;;;;;5027058;28;20209;-71
2023/05/19 04:43:02;;;;;;;3.83;2.30;;;;;;;;;;5025741;28;20174;-72
2023/05/19 04:45:28;;;;;;;4.47;2.30;;;;;;;;;;5020737;28;20206;-71
2023/05/19 04:47:58;;;;;;;3.63;2.00;;;;;;;;;;5001769;28;20194;-73
2023/05/19 04:50:25;;;;;;;4.97;2.13;;;;;;;;;;5007715;28;20186;-72
2023/05/19 04:52:51;;;;;;;4.87;2.17;;;;;;;;;;5027633;28;20201;-71
2023/05/19 04:55:18;;;;;;;5.37;1.97;;;;;;;;;;5037691;28;20187;-71
2023/05/19 04:57:44;;;;;;;7.27;2.10;;;;;;;;;;5013112;28;20210;-72
2023/05/19 05:00:12;;;;;;;3.90;1.80;;;;;;;;;;5042567;28;20177;-72
2023/05/19 05:02:49;;;;;;;4.07;1.93;;;;;;;;;;5021526;28;20206;-72
2023/05/19 05:05:18;;;;;;;4.07;1.97;;;;;;;;;;5020495;28;20174;-71
2023/05/19 05:07:44;;;;;;;3.80;2.00;;;;;;;;;;5015942;28;20210;-72
2023/05/19 05:10:11;;;;;;;4.20;2.07;;;;;;;;;;5016901;28;20185;-72
2023/05/19 05:12:37;;;;;;;5.27;2.13;;;;;;;;;;5031084;28;20201;-72
2023/05/19 05:15:05;;;;;;;3.47;1.90;;;;;;;;;;5016199;28;20181;-71
2023/05/19 05:17:34;;;;;;;5.57;2.40;;;;;;;;;;5012781;28;20765;-71
2023/05/19 05:20:04;;;;;;;6.00;2.20;;;;;;;;;;5012819;28;20277;-71
2023/05/19 05:22:30;;;;;;;6.47;2.63;;;;;;;;;;5016796;28;20186;-71
2023/05/19 05:24:57;;;;;;;4.23;2.30;;;;;;;;;;5018697;28;20266;-71
2023/05/19 05:27:23;;;;;;;3.17;1.90;;;;;;;;;;5022464;28;20577;-71
2023/05/19 05:29:49;;;;;;;5.03;2.20;;;;;;;;;;5015101;28;20193;-71
2023/05/19 05:32:16;;;;;;;11.20;2.17;;;;;;;;;;5039592;28;20181;-71
2023/05/19 05:34:42;;;;;;;4.37;2.13;;;;;;;;;;5020829;28;20202;-70
2023/05/19 05:37:10;;;;;;;5.17;2.10;;;;;;;;;;5018038;28;20240;-71
2023/05/19 05:39:36;;;;;;;5.87;2.00;;;;;;;;;;5017743;28;20187;-70
2023/05/19 05:42:03;;;;;;;4.80;2.27;;;;;;;;;;5044426;28;20175;-71
2023/05/19 05:44:29;;;;;;;5.47;2.50;;;;;;;;;;5017872;28;20214;-71
2023/05/19 05:46:56;;;;;;;4.73;2.20;;;;;;;;;;5015352;28;20201;-71
2023/05/19 05:49:23;;;;;;;4.40;2.10;;;;;;;;;;5014995;28;20167;-72
2023/05/19 05:51:50;;;;;;;4.40;2.30;;;;;;;;;;5030904;28;20184;-70
2023/05/19 05:54:17;;;;;;;3.77;2.10;;;;;;;;;;5007571;28;20193;-72
2023/05/19 05:56:45;;;;;;;5.10;2.63;;;;;;;;;;5010510;28;20198;-72
2023/05/19 05:59:12;;;;;;;4.23;2.17;;;;;;;;;;5019741;28;20206;-74
2023/05/19 06:01:38;;;;;;;4.90;2.20;;;;;;;;;;5027528;28;20232;-73
2023/05/19 06:04:07;;;;;;;3.40;2.00;;;;;;;;;;5029157;28;20236;-71
2023/05/19 06:06:35;;;;;;;6.60;2.43;;;;;;;;;;5001134;28;20198;-72
2023/05/19 06:09:01;;;;;;;5.33;2.40;;;;;;;;;;5000247;28;20186;-72
2023/05/19 06:11:28;;;;;;;4.10;2.03;;;;;;;;;;5004520;28;20209;-73
2023/05/19 06:13:57;;;;;;;5.03;2.23;;;;;;;;;;5017301;28;20268;-73
2023/05/19 06:16:43;;;;;;;4.23;2.43;;;;;;;;;;5025829;28;20228;-74
2023/05/19 06:19:09;;;;;;;7.53;2.43;;;;;;;;;;5016878;28;20229;-72
2023/05/19 06:21:35;;;;;;;7.03;2.47;;;;;;;;;;5015575;28;20206;-72
2023/05/19 06:24:02;;;;;;;4.70;2.20;;;;;;;;;;5033258;28;20228;-72
2023/05/19 06:26:28;;;;;;;6.13;2.50;;;;;;;;;;5014465;28;20222;-73
2023/05/19 06:28:54;;;;;;;6.33;2.50;;;;;;;;;;5017750;28;20638;-73
2023/05/19 06:31:21;;;;;;;7.67;2.50;;;;;;;;;;5016318;28;20186;-72
2023/05/19 06:33:52;;;;;;;6.23;2.27;;;;;;;;;;5007741;28;20560;-73
2023/05/19 06:36:20;;;;;;;5.20;2.40;;;;;;;;;;5017584;28;20261;-72
2023/05/19 06:38:47;;;;;;;6.30;2.60;;;;;;;;;;4999892;28;20206;-72
2023/05/19 06:41:13;;;;;;;5.07;2.40;;;;;;;;;;5015366;28;20179;-73
2023/05/19 06:43:40;;;;;;;5.13;2.37;;;;;;;;;;5016440;28;20232;-73
2023/05/19 06:46:10;;;;;;;5.13;2.40;;;;;;;;;;5014008;28;20685;-73
2023/05/19 06:48:38;;;;;;;4.37;2.40;;;;;;;;;;5012331;28;20573;-73
2023/05/19 06:51:04;;;;;;;4.50;2.47;;;;;;;;;;5018430;28;20191;-72
2023/05/19 06:53:33;;;;;;;7.00;2.47;;;;;;;;;;5013826;28;20569;-73
2023/05/19 06:56:01;;;;;;;4.00;2.30;;;;;;;;;;5015237;28;20202;-72
2023/05/19 06:58:32;;;;;;;5.00;2.33;;;;;;;;;;5015147;28;20289;-72
2023/05/19 07:01:00;;;;;;;5.73;2.50;;;;;;;;;;5014895;28;20170;-73
2023/05/19 07:03:31;;;;;;;3.77;2.40;;;;;;;;;;5012841;28;20200;-72
2023/05/19 07:05:58;;;;;;;5.63;2.63;;;;;;;;;;5013878;28;20615;-74
2023/05/19 07:08:26;;;;;;;5.80;2.50;;;;;;;;;;5031013;28;20187;-73
2023/05/19 07:10:54;;;;;;;4.87;2.60;;;;;;;;;;5004409;28;20273;-74
2023/05/19 07:13:21;;;;;;;4.67;2.43;;;;;;;;;;5017616;28;20217;-72
2023/05/19 07:15:47;;;;;;;5.43;2.30;;;;;;;;;;5017727;28;20636;-72
2023/05/19 07:18:15;;;;;;;6.30;2.67;;;;;;;;;;5015140;28;20210;-74
2023/05/19 07:20:41;;;;;;;5.33;2.30;;;;;;;;;;5032703;28;20174;-75
2023/05/19 07:23:07;;;;;;;5.30;2.40;;;;;;;;;;5015136;28;20171;-73
2023/05/19 07:25:34;;;;;;;5.23;2.30;;;;;;;;;;5014766;28;20194;-72
2023/05/19 07:28:00;;;;;;;3.80;2.10;;;;;;;;;;5038726;28;20273;-73
2023/05/19 07:30:29;;;;;;;5.23;2.40;;;;;;;;;;5032384;28;20182;-73
2023/05/19 07:32:55;;;;;;;4.37;2.40;;;;;;;;;;5032472;28;20174;-73
2023/05/19 07:35:21;;;;;;;6.70;2.43;;;;;;;;;;5019125;28;20547;-73
2023/05/19 07:37:48;;;;;;;4.03;2.10;;;;;;;;;;5050923;28;20229;-73
2023/05/19 07:40:14;;;;;;;4.60;2.07;;;;;;;;;;5035103;28;20775;-73
2023/05/19 07:42:41;;;;;;;6.57;2.33;;;;;;;;;;5025233;28;20639;-72
2023/05/19 07:45:07;;;;;;;4.77;2.10;;;;;;;;;;5030662;28;20249;-72
2023/05/19 07:47:33;;;;;;;6.17;2.40;;;;;;;;;;5032358;28;20245;-72
2023/05/19 07:49:59;;;;;;;3.97;2.20;;;;;;;;;;5032612;28;20182;-72
2023/05/19 07:52:25;;;;;;;3.43;1.87;;;;;;;;;;5037345;28;20257;-73
2023/05/19 07:54:52;;;;;;;5.90;2.20;;;;;;;;;;5012366;28;20653;-72
2023/05/19 07:57:18;;;;;;;5.97;2.50;;;;;;;;;;5032456;28;20233;-76
2023/05/19 07:59:44;;;;;;;5.10;2.33;;;;;;;;;;5032558;28;20206;-75
2023/05/19 08:02:10;;;;;;;5.90;2.20;;;;;;;;;;5043435;28;20213;-75
2023/05/19 08:04:36;;;;;;;3.60;1.90;;;;;;;;;;5033605;28;20181;-73
2023/05/19 08:07:03;;;;;;;4.33;1.90;;;;;;;;;;5025647;28;20198;-72
2023/05/19 08:09:29;;;;;;;3.77;2.10;;;;;;;;;;5031846;28;20167;-72
2023/05/19 08:11:55;;;;;;;7.83;2.30;;;;;;;;;;5030601;28;20649;-72
2023/05/19 08:14:22;;;;;;;5.67;2.27;;;;;;;;;;5031357;28;20213;-72
2023/05/19 08:16:48;;;;;;;4.63;2.37;;;;;;;;;;5028070;28;20202;-71
2023/05/19 08:19:14;;;;;;;4.93;2.17;;;;;;;;;;5031384;28;20934;-72
2023/05/19 08:21:41;;;;;;;4.67;2.30;;;;;;;;;;5030953;28;20178;-71
2023/05/19 08:24:07;;;;;;;5.67;2.20;;;;;;;;;;5029800;28;20182;-73
2023/05/19 08:26:34;;;;;;;6.20;2.30;;;;;;;;;;5032845;28;20257;-73
2023/05/19 08:29:00;;;;;;;3.87;1.93;;;;;;;;;;5031592;28;20186;-73
2023/05/19 08:31:26;;;;;;;4.10;1.87;;;;;;;;;;5032439;28;20237;-71
2023/05/19 08:33:52;;;;;;;6.00;2.40;;;;;;;;;;5031016;28;20232;-71
2023/05/19 08:36:20;;;;;;;5.00;2.00;;;;;;;;;;5029004;28;20681;-72
2023/05/19 08:38:46;;;;;;;5.67;2.13;;;;;;;;;;5022892;28;20351;-72
2023/05/19 08:41:13;;;;;;;7.37;2.30;;;;;;;;;;5029028;28;20183;-73
2023/05/19 08:43:39;;;;;;;3.87;2.10;;;;;;;;;;5029817;28;20576;-73
2023/05/19 08:46:06;;;;;;;3.33;1.90;;;;;;;;;;5030512;28;20625;-72
2023/05/19 08:48:34;;;;;;;8.27;2.33;;;;;;;;;;5029335;28;20232;-74
2023/05/19 08:51:03;;;;;;;3.80;2.10;;;;;;;;;;5030794;28;20187;-72
2023/05/19 08:53:36;;;;;;;5.20;2.30;;;;;;;;;;5029991;28;20253;-72
2023/05/19 08:56:14;;;;;;;5.00;2.20;;;;;;;;;;5029120;28;20194;-73
2023/05/19 08:58:42;;;;;;;5.80;2.33;;;;;;;;;;5030808;28;20202;-73
2023/05/19 09:01:15;;;;;;;7.77;2.37;;;;;;;;;;5032245;28;20182;-72
2023/05/19 09:03:42;;;;;;;5.73;2.27;;;;;;;;;;5028563;28;20197;-73
2023/05/19 09:06:12;;;;;;;5.90;2.20;;;;;;;;;;5030742;28;20218;-74
2023/05/19 09:08:39;;;;;;;6.73;2.53;;;;;;;;;;5019240;28;20232;-75
2023/05/19 09:11:05;;;;;;;3.70;2.20;;;;;;;;;;5030724;28;20186;-74
2023/05/19 09:13:31;;;;;;;4.30;2.20;;;;;;;;;;5029807;28;20195;-75
2023/05/19 09:15:58;;;;;;;5.47;2.07;;;;;;;;;;5035818;28;20239;-75
2023/05/19 09:18:25;;;;;;;3.80;2.03;;;;;;;;;;5029761;28;20562;-74
2023/05/19 09:20:58;;;;;;;5.43;2.27;;;;;;;;;;5033285;28;20174;-75
2023/05/19 09:23:31;;;;;;;5.93;2.40;;;;;;;;;;5031379;28;20527;-72
2023/05/19 09:26:00;;;;;;;4.73;2.23;;;;;;;;;;5032457;28;20670;-73
2023/05/19 09:28:32;;;;;;;8.03;2.50;;;;;;;;;;5041298;28;20195;-73
2023/05/19 09:31:01;;;;;;;4.53;2.23;;;;;;;;;;5031303;28;20182;-74
2023/05/19 09:33:28;;;;;;;5.87;2.27;;;;;;;;;;5031475;28;20649;-74
2023/05/19 09:35:55;;;;;;;4.33;2.20;;;;;;;;;;5028110;28;20581;-73
2023/05/19 09:38:22;;;;;;;5.73;2.30;;;;;;;;;;5030485;28;20214;-74
2023/05/19 09:40:48;;;;;;;5.40;2.40;;;;;;;;;;5020984;28;20178;-74
2023/05/19 09:43:15;;;;;;;5.13;2.40;;;;;;;;;;5033251;28;20182;-74
2023/05/19 09:45:41;;;;;;;6.67;3.27;;;;;;;;;;5030593;28;20248;-74
2023/05/19 09:48:08;;;;;;;6.00;2.30;;;;;;;;;;5030866;28;20210;-76
2023/05/19 09:50:34;;;;;;;4.67;1.90;;;;;;;;;;5030882;28;20189;-75
2023/05/19 09:53:02;;;;;;;5.13;2.20;;;;;;;;;;5026809;28;21080;-74
2023/05/19 09:55:28;;;;;;;4.43;2.00;;;;;;;;;;5026318;28;20286;-75
2023/05/19 09:57:55;;;;;;;4.27;2.23;;;;;;;;;;5030004;28;20753;-74
2023/05/19 10:00:22;;;;;;;4.67;2.27;;;;;;;;;;5030033;28;20193;-74
2023/05/19 10:02:49;;;;;;;6.50;2.40;;;;;;;;;;5029743;28;20193;-74
2023/05/19 10:05:18;;;;;;;7.43;2.10;;;;;;;;;;5030431;28;20691;-74
2023/05/19 10:07:47;;;;;;;4.57;2.20;;;;;;;;;;5028233;28;20199;-74
2023/05/19 10:10:14;;;;;;;7.20;2.50;;;;;;;;;;5028608;28;20217;-75
2023/05/19 10:12:41;;;;;;;4.40;2.60;;;;;;;;;;5029857;28;20189;-74
2023/05/19 10:15:11;;;;;;;6.37;2.37;;;;;;;;;;5029264;28;20210;-74
2023/05/19 10:17:38;;;;;;;6.50;2.40;;;;;;;;;;5029189;28;20214;-74
2023/05/19 10:20:05;;;;;;;4.70;2.20;;;;;;;;;;5041170;28;20189;-78
2023/05/19 10:22:32;;;;;;;7.73;2.60;;;;;;;;;;4998045;28;20685;-75
2023/05/19 10:24:58;;;;;;;6.17;2.63;;;;;;;;;;5033839;28;20190;-77
2023/05/19 10:27:26;;;;;;;5.63;2.30;;;;;;;;;;5033857;28;20206;-77
2023/05/19 10:29:54;;;;;;;5.30;2.30;;;;;;;;;;5034407;28;20240;-75
2023/05/19 10:32:22;;;;;;;4.00;2.17;;;;;;;;;;5033287;28;20232;-73
2023/05/19 10:35:04;;;;;;;6.13;2.20;;;;;;;;;;5034253;28;20190;-74
2023/05/19 10:37:42;;;;;;;5.03;2.20;;;;;;;;;;5036520;28;20206;-75
2023/05/19 10:40:16;;;;;;;4.47;2.33;;;;;;;;;;5020047;28;20182;-78
2023/05/19 10:42:56;;;;;;;4.70;2.07;;;;;;;;;;5020967;28;20745;-76
2023/05/19 10:45:26;;;;;;;5.77;2.30;;;;;;;;;;5033303;28;20536;-77
2023/05/19 10:47:54;;;;;;;3.17;2.07;;;;;;;;;;5017142;28;20210;-77
2023/05/19 10:50:20;;;;;;;3.53;2.07;;;;;;;;;;5034407;28;20253;-79
2023/05/19 10:52:54;;;;;;;9.67;2.47;;;;;;;;;;5014955;28;20170;-80
2023/05/19 10:55:40;;;;;;;4.97;2.30;;;;;;;;;;5028407;28;20181;-75
2023/05/19 10:58:06;;;;;;;4.03;2.30;;;;;;;;;;5043751;28;20206;-75
2023/05/19 11:00:33;;;;;;;4.23;2.10;;;;;;;;;;5036725;28;20714;-75
2023/05/19 11:03:15;;;;;;;4.63;2.40;;;;;;;;;;5013334;28;20677;-74
2023/05/19 11:05:44;;;;;;;3.70;2.27;;;;;;;;;;5015394;28;20654;-74
2023/05/19 11:08:11;;;;;;;4.00;2.10;;;;;;;;;;5020580;28;20655;-77
2023/05/19 11:10:37;;;;;;;6.17;2.50;;;;;;;;;;4978336;28;20237;-76
2023/05/19 11:13:04;;;;;;;4.87;2.60;;;;;;;;;;5025613;28;20187;-75
2023/05/19 11:15:33;;;;;;;5.13;2.20;;;;;;;;;;5033780;28;20240;-75
2023/05/19 11:18:01;;;;;;;3.87;2.00;;;;;;;;;;5033679;28;20310;-76
2023/05/19 11:20:27;;;;;;;4.00;2.27;;;;;;;;;;5026874;28;20220;-77
2023/05/19 11:23:03;;;;;;;5.03;2.43;;;;;;;;;;5010590;28;20241;-77
2023/05/19 11:25:42;;;;;;;3.80;2.10;;;;;;;;;;5013662;28;20189;-75
2023/05/19 11:28:12;;;;;;;5.77;2.53;;;;;;;;;;5015753;28;20171;-75
2023/05/19 11:30:38;;;;;;;3.63;2.20;;;;;;;;;;5014879;28;20921;-74
2023/05/19 11:33:05;;;;;;;5.23;2.50;;;;;;;;;;5027273;28;20184;-73
2023/05/19 11:35:32;;;;;;;4.97;2.10;;;;;;;;;;5033064;28;20270;-75
2023/05/19 11:37:59;;;;;;;3.03;1.80;;;;;;;;;;5014393;28;20215;-72
2023/05/19 11:40:26;;;;;;;3.20;2.23;;;;;;;;;;5026444;28;20187;-73
2023/05/19 11:42:52;;;;;;;5.90;2.57;;;;;;;;;;5025580;28;20265;-75
2023/05/19 11:45:32;;;;;;;3.93;2.10;;;;;;;;;;5010337;28;20189;-74
2023/05/19 11:48:05;;;;;;;6.43;2.23;;;;;;;;;;5022389;28;20192;-74
2023/05/19 11:50:37;;;;;;;4.50;2.40;;;;;;;;;;5029772;28;20736;-74
2023/05/19 11:53:15;;;;;;;4.20;2.40;;;;;;;;;;5014460;28;20186;-74
2023/05/19 11:55:50;;;;;;;3.70;2.20;;;;;;;;;;5034114;28;20186;-74
2023/05/19 11:58:30;;;;;;;7.00;2.47;;;;;;;;;;5025050;28;20702;-74
2023/05/19 12:01:09;;;;;;;5.87;2.23;;;;;;;;;;5030337;28;20269;-73
2023/05/19 12:03:46;;;;;;;5.67;2.47;;;;;;;;;;5030165;28;20228;-74
2023/05/19 12:06:23;;;;;;;4.40;2.17;;;;;;;;;;5011809;28;20293;-74
2023/05/19 12:08:59;;;;;;;3.73;2.20;;;;;;;;;;5012659;28;20265;-74
2023/05/19 12:11:36;;;;;;;4.27;2.33;;;;;;;;;;5029736;28;20186;-74
2023/05/19 12:14:12;;;;;;;4.50;2.20;;;;;;;;;;5029264;28;20213;-73
2023/05/19 12:16:47;;;;;;;5.17;2.20;;;;;;;;;;5029012;28;20292;-73
2023/05/19 12:19:20;;;;;;;4.73;2.30;;;;;;;;;;5029262;28;20206;-74
2023/05/19 12:21:48;;;;;;;5.53;2.10;;;;;;;;;;5026507;28;20215;-73
2023/05/19 12:24:17;;;;;;;4.03;2.40;;;;;;;;;;5024513;28;20236;-75
2023/05/19 12:26:44;;;;;;;3.83;2.27;;;;;;;;;;5025948;28;20223;-73
2023/05/19 12:29:10;;;;;;;4.40;2.30;;;;;;;;;;5030815;28;20263;-73
2023/05/19 12:31:36;;;;;;;4.70;2.20;;;;;;;;;;5036536;28;20208;-73
2023/05/19 12:34:02;;;;;;;5.00;2.10;;;;;;;;;;5030867;28;20183;-76
2023/05/19 12:36:30;;;;;;;4.87;2.20;;;;;;;;;;5037083;28;20214;-74
2023/05/19 12:38:56;;;;;;;4.47;2.20;;;;;;;;;;5031555;28;20646;-79
2023/05/19 12:41:26;;;;;;;6.43;2.00;;;;;;;;;;5034353;28;20179;-74
2023/05/19 12:43:54;;;;;;;4.73;2.00;;;;;;;;;;5034378;28;20210;-73
2023/05/19 12:46:21;;;;;;;3.37;1.83;;;;;;;;;;5012650;28;20210;-74
2023/05/19 12:48:47;;;;;;;3.33;2.00;;;;;;;;;;5023628;28;20232;-73
2023/05/19 12:51:17;;;;;;;3.57;2.10;;;;;;;;;;5030319;28;20682;-74
2023/05/19 12:53:43;;;;;;;6.10;2.00;;;;;;;;;;5030314;28;20749;-74
2023/05/19 12:56:12;;;;;;;4.37;2.30;;;;;;;;;;5029324;28;20296;-73
2023/05/19 12:58:38;;;;;;;3.43;2.00;;;;;;;;;;5032435;28;20674;-74
2023/05/19 13:01:05;;;;;;;4.37;2.13;;;;;;;;;;5037577;28;20182;-74
2023/05/19 13:03:31;;;;;;;2.37;1.70;;;;;;;;;;5031472;28;20296;-74
2023/05/19 13:05:58;;;;;;;3.20;1.87;;;;;;;;;;5016962;28;20194;-74
2023/05/19 13:08:24;;;;;;;3.50;1.77;;;;;;;;;;5035465;28;20222;-76
2023/05/19 13:10:51;;;;;;;8.20;1.90;;;;;;;;;;5039624;28;20240;-75
2023/05/19 13:13:17;;;;;;;3.03;1.80;;;;;;;;;;5036381;28;20653;-74
2023/05/19 13:15:44;;;;;;;2.90;1.80;;;;;;;;;;5025650;28;20189;-72
2023/05/19 13:18:11;;;;;;;4.87;2.20;;;;;;;;;;5030293;28;20221;-75
2023/05/19 13:20:39;;;;;;;3.27;1.70;;;;;;;;;;5016956;28;20211;-72
2023/05/19 13:23:05;;;;;;;4.00;2.10;;;;;;;;;;5007926;28;20202;-72
2023/05/19 13:25:33;;;;;;;4.43;2.00;;;;;;;;;;5031132;28;20187;-72
2023/05/19 13:28:00;;;;;;;3.53;1.80;;;;;;;;;;5023724;28;20249;-73
2023/05/19 13:30:27;;;;;;;3.03;1.80;;;;;;;;;;5028594;28;20269;-72
2023/05/19 13:32:53;;;;;;;2.80;2.10;;;;;;;;;;5018615;28;20229;-72
2023/05/19 13:35:19;;;;;;;3.03;1.77;;;;;;;;;;5029979;28;20266;-72
2023/05/19 13:37:45;;;;;;;2.60;1.83;;;;;;;;;;5031131;28;20218;-73
2023/05/19 13:40:13;;;;;;;2.83;1.70;;;;;;;;;;5024632;28;20179;-73
2023/05/19 13:42:40;;;;;;;2.97;1.80;;;;;;;;;;5022112;28;20190;-72
2023/05/19 13:45:06;;;;;;;2.80;1.90;;;;;;;;;;5029576;28;20170;-73
2023/05/19 13:47:32;;;;;;;2.30;2.10;;;;;;;;;;5013946;28;20209;-73
2023/05/19 13:49:59;;;;;;;4.40;2.00;;;;;;;;;;5030360;28;20183;-72
2023/05/19 13:52:25;;;;;;;2.73;1.90;;;;;;;;;;5031039;28;20192;-73
2023/05/19 13:54:53;;;;;;;2.67;1.80;;;;;;;;;;5030235;28;20261;-72
2023/05/19 13:57:19;;;;;;;3.63;2.00;;;;;;;;;;5035043;28;20736;-73
2023/05/19 13:59:45;;;;;;;4.13;2.00;;;;;;;;;;5042350;28;20231;-72
2023/05/19 14:02:11;;;;;;;3.73;1.80;;;;;;;;;;5034896;28;20225;-72
2023/05/19 14:04:38;;;;;;;3.23;2.00;;;;;;;;;;5034868;28;20596;-72
2023/05/19 14:07:04;;;;;;;2.40;2.07;;;;;;;;;;5017177;28;20221;-74
2023/05/19 14:09:31;;;;;;;2.10;1.90;;;;;;;;;;5031082;28;20194;-73
2023/05/19 14:11:57;;;;;;;3.33;1.90;;;;;;;;;;5034159;28;20649;-73
2023/05/19 14:14:23;;;;;;;3.53;2.10;;;;;;;;;;5032619;28;20209;-73
2023/05/19 14:16:50;;;;;;;2.63;1.90;;;;;;;;;;5030307;28;20643;-72
2023/05/19 14:19:16;;;;;;;2.00;1.53;;;;;;;;;;5037458;28;20580;-72
2023/05/19 14:21:42;;;;;;;3.23;1.90;;;;;;;;;;5039735;28;20186;-73
2023/05/19 14:24:08;;;;;;;3.20;1.77;;;;;;;;;;5042951;28;20182;-72
2023/05/19 14:26:34;;;;;;;3.27;1.83;;;;;;;;;;5046283;28;20212;-72
2023/05/19 14:29:00;;;;;;;3.10;1.93;;;;;;;;;;5039140;28;20678;-73
2023/05/19 14:31:27;;;;;;;3.37;1.80;;;;;;;;;;5041918;28;20270;-73
2023/05/19 14:33:53;;;;;;;2.63;1.90;;;;;;;;;;5041237;28;20175;-72
2023/05/19 14:36:19;;;;;;;3.77;1.83;;;;;;;;;;5044019;28;20207;-71
2023/05/19 14:38:45;;;;;;;2.07;1.73;;;;;;;;;;5033763;28;20217;-72
2023/05/19 14:41:11;;;;;;;3.27;2.00;;;;;;;;;;5042511;28;20191;-73
2023/05/19 14:43:40;;;;;;;2.27;1.80;;;;;;;;;;5027496;28;20206;-72
2023/05/19 14:46:06;;;;;;;4.17;1.90;;;;;;;;;;5038941;28;20209;-72
2023/05/19 14:48:32;;;;;;;2.53;1.80;;;;;;;;;;5043008;28;20229;-71